sensor_id;sensor_type;location;lat;lon;timestamp;P1;durP1;ratioP1;P2;durP2;ratioP2
11086;SDS011;5597;47.588;9.642;2023-04-15T00:00:05;3.30;;;1.60;;
11086;SDS011;5597;47.588;9.642;2023-04-15T00:02:31;2.77;;;1.20;;
11086;SDS011;5597;47.588;9.642;2023-04-15T00:04:57;3.20;;;1.43;;
11086;SDS011;5597;47.588;9.642;2023-04-15T00:07:22;1.57;;;1.17;;
11086;SDS011;5597;47.588;9.642;2023-04-15T00:09:48;4.07;;;1.43;;
11086;SDS011;5597;47.588;9.642;2023-04-15T00:12:14;2.67;;;1.30;;
11086;SDS011;5597;47.588;9.642;2023-04-15T00:14:39;1.07;;;0.97;;
11086;SDS011;5597;47.588;9.642;2023-04-15T00:17:05;1.53;;;1.10;;
11086;SDS011;5597;47.588;9.642;2023-04-15T00:19:31;2.20;;;1.13;;
11086;SDS011;5597;47.588;9.642;2023-04-15T00:21:57;2.73;;;1.23;;
11086;SDS011;5597;47.588;9.642;2023-04-15T00:24:23;1.60;;;1.10;;
11086;SDS011;5597;47.588;9.642;2023-04-15T00:26:49;2.63;;;1.33;;
11086;SDS011;5597;47.588;9.642;2023-04-15T00:29:14;2.70;;;1.07;;
11086;SDS011;5597;47.588;9.642;2023-04-15T00:31:40;2.60;;;1.20;;
11086;SDS011;5597;47.588;9.642;2023-04-15T00:34:06;2.23;;;1.20;;
11086;SDS011;5597;47.588;9.642;2023-04-15T00:36:32;2.20;;;1.20;;
11086;SDS011;5597;47.588;9.642;2023-04-15T00:38:59;3.33;;;1.10;;
11086;SDS011;5597;47.588;9.642;2023-04-15T00:41:24;2.47;;;1.13;;
11086;SDS011;5597;47.588;9.642;2023-04-15T00:43:50;3.07;;;1.20;;
11086;SDS011;5597;47.588;9.642;2023-04-15T00:46:16;3.30;;;1.43;;
11086;SDS011;5597;47.588;9.642;2023-04-15T00:48:44;3.50;;;1.30;;
11086;SDS011;5597;47.588;9.642;2023-04-15T00:51:11;1.53;;;1.20;;
11086;SDS011;5597;47.588;9.642;2023-04-15T00:53:37;2.13;;;1.20;;
11086;SDS011;5597;47.588;9.642;2023-04-15T00:56:03;2.87;;;1.57;;
11086;SDS011;5597;47.588;9.642;2023-04-15T00:58:30;1.50;;;1.10;;
11086;SDS011;5597;47.588;9.642;2023-04-15T01:00:55;1.83;;;1.10;;
11086;SDS011;5597;47.588;9.642;2023-04-15T01:03:21;2.13;;;1.03;;
11086;SDS011;5597;47.588;9.642;2023-04-15T01:05:47;1.97;;;1.00;;
11086;SDS011;5597;47.588;9.642;2023-04-15T01:08:13;1.70;;;1.00;;
11086;SDS011;5597;47.588;9.642;2023-04-15T01:10:39;1.43;;;1.10;;
11086;SDS011;5597;47.588;9.642;2023-04-15T01:13:05;1.30;;;1.10;;
11086;SDS011;5597;47.588;9.642;2023-04-15T01:15:30;1.50;;;1.00;;
11086;SDS011;5597;47.588;9.642;2023-04-15T01:17:59;1.60;;;1.10;;
11086;SDS011;5597;47.588;9.642;2023-04-15T01:20:27;3.53;;;1.20;;
11086;SDS011;5597;47.588;9.642;2023-04-15T01:22:53;2.77;;;1.03;;
11086;SDS011;5597;47.588;9.642;2023-04-15T01:25:41;0.87;;;0.87;;
11086;SDS011;5597;47.588;9.642;2023-04-15T01:28:05;1.47;;;1.00;;
11086;SDS011;5597;47.588;9.642;2023-04-15T01:30:33;1.77;;;1.10;;
11086;SDS011;5597;47.588;9.642;2023-04-15T01:32:59;2.17;;;1.00;;
11086;SDS011;5597;47.588;9.642;2023-04-15T01:35:25;2.27;;;1.10;;
11086;SDS011;5597;47.588;9.642;2023-04-15T01:37:51;3.13;;;1.40;;
11086;SDS011;5597;47.588;9.642;2023-04-15T01:40:18;1.93;;;1.07;;
11086;SDS011;5597;47.588;9.642;2023-04-15T01:42:44;1.30;;;1.00;;
11086;SDS011;5597;47.588;9.642;2023-04-15T01:45:10;1.40;;;1.10;;
11086;SDS011;5597;47.588;9.642;2023-04-15T01:47:37;1.33;;;1.00;;
11086;SDS011;5597;47.588;9.642;2023-04-15T01:50:03;1.27;;;1.00;;
11086;SDS011;5597;47.588;9.642;2023-04-15T01:52:29;1.50;;;1.03;;
11086;SDS011;5597;47.588;9.642;2023-04-15T01:54:54;1.70;;;1.00;;
11086;SDS011;5597;47.588;9.642;2023-04-15T01:57:20;1.50;;;1.00;;
11086;SDS011;5597;47.588;9.642;2023-04-15T01:59:46;1.80;;;1.10;;
11086;SDS011;5597;47.588;9.642;2023-04-15T02:02:11;1.67;;;1.10;;
11086;SDS011;5597;47.588;9.642;2023-04-15T02:04:37;2.17;;;1.00;;
11086;SDS011;5597;47.588;9.642;2023-04-15T02:07:03;2.43;;;1.20;;
11086;SDS011;5597;47.588;9.642;2023-04-15T02:09:28;2.40;;;1.30;;
11086;SDS011;5597;47.588;9.642;2023-04-15T02:11:54;2.47;;;1.40;;
11086;SDS011;5597;47.588;9.642;2023-04-15T02:14:20;3.07;;;1.17;;
11086;SDS011;5597;47.588;9.642;2023-04-15T02:16:46;2.20;;;1.20;;
11086;SDS011;5597;47.588;9.642;2023-04-15T02:19:11;2.57;;;1.00;;
11086;SDS011;5597;47.588;9.642;2023-04-15T02:21:37;1.40;;;0.97;;
11086;SDS011;5597;47.588;9.642;2023-04-15T02:24:03;1.43;;;1.00;;
11086;SDS011;5597;47.588;9.642;2023-04-15T02:26:29;1.83;;;1.00;;
11086;SDS011;5597;47.588;9.642;2023-04-15T02:28:58;2.93;;;0.90;;
11086;SDS011;5597;47.588;9.642;2023-04-15T02:31:24;2.03;;;1.00;;
11086;SDS011;5597;47.588;9.642;2023-04-15T02:33:50;1.20;;;1.00;;
11086;SDS011;5597;47.588;9.642;2023-04-15T02:36:15;2.13;;;0.80;;
11086;SDS011;5597;47.588;9.642;2023-04-15T02:38:41;1.70;;;0.80;;
11086;SDS011;5597;47.588;9.642;2023-04-15T02:41:10;1.87;;;0.90;;
11086;SDS011;5597;47.588;9.642;2023-04-15T02:43:35;2.60;;;0.90;;
11086;SDS011;5597;47.588;9.642;2023-04-15T02:46:01;1.33;;;0.83;;
11086;SDS011;5597;47.588;9.642;2023-04-15T02:48:27;1.93;;;1.07;;
11086;SDS011;5597;47.588;9.642;2023-04-15T02:50:53;1.00;;;0.90;;
11086;SDS011;5597;47.588;9.642;2023-04-15T02:53:34;1.73;;;1.07;;
11086;SDS011;5597;47.588;9.642;2023-04-15T02:56:00;2.70;;;1.10;;
11086;SDS011;5597;47.588;9.642;2023-04-15T02:58:25;1.50;;;1.10;;
11086;SDS011;5597;47.588;9.642;2023-04-15T03:00:51;1.23;;;1.13;;
11086;SDS011;5597;47.588;9.642;2023-04-15T03:03:17;0.87;;;0.70;;
11086;SDS011;5597;47.588;9.642;2023-04-15T03:05:43;1.27;;;0.97;;
11086;SDS011;5597;47.588;9.642;2023-04-15T03:08:08;2.30;;;0.93;;
11086;SDS011;5597;47.588;9.642;2023-04-15T03:10:34;1.97;;;0.97;;
11086;SDS011;5597;47.588;9.642;2023-04-15T03:12:59;2.60;;;1.20;;
11086;SDS011;5597;47.588;9.642;2023-04-15T03:15:25;1.70;;;1.10;;
11086;SDS011;5597;47.588;9.642;2023-04-15T03:17:51;2.90;;;1.00;;
11086;SDS011;5597;47.588;9.642;2023-04-15T03:20:16;2.40;;;1.10;;
11086;SDS011;5597;47.588;9.642;2023-04-15T03:22:42;1.10;;;1.00;;
11086;SDS011;5597;47.588;9.642;2023-04-15T03:25:08;1.43;;;0.97;;
11086;SDS011;5597;47.588;9.642;2023-04-15T03:27:33;1.60;;;0.83;;
11086;SDS011;5597;47.588;9.642;2023-04-15T03:29:59;1.57;;;0.90;;
11086;SDS011;5597;47.588;9.642;2023-04-15T03:32:24;1.33;;;0.87;;
11086;SDS011;5597;47.588;9.642;2023-04-15T03:34:51;1.67;;;1.27;;
11086;SDS011;5597;47.588;9.642;2023-04-15T03:37:16;0.90;;;0.80;;
11086;SDS011;5597;47.588;9.642;2023-04-15T03:39:42;2.67;;;0.80;;
11086;SDS011;5597;47.588;9.642;2023-04-15T03:42:07;1.63;;;0.90;;
11086;SDS011;5597;47.588;9.642;2023-04-15T03:44:33;2.23;;;1.20;;
11086;SDS011;5597;47.588;9.642;2023-04-15T03:46:58;1.67;;;1.10;;
11086;SDS011;5597;47.588;9.642;2023-04-15T03:49:24;1.33;;;0.90;;
11086;SDS011;5597;47.588;9.642;2023-04-15T03:51:50;0.80;;;0.80;;
11086;SDS011;5597;47.588;9.642;2023-04-15T03:54:15;1.20;;;0.90;;
11086;SDS011;5597;47.588;9.642;2023-04-15T03:56:41;1.20;;;0.97;;
11086;SDS011;5597;47.588;9.642;2023-04-15T03:59:06;1.40;;;1.00;;
11086;SDS011;5597;47.588;9.642;2023-04-15T04:01:32;1.53;;;0.90;;
11086;SDS011;5597;47.588;9.642;2023-04-15T04:03:58;2.17;;;1.20;;
11086;SDS011;5597;47.588;9.642;2023-04-15T04:06:23;2.10;;;1.03;;
11086;SDS011;5597;47.588;9.642;2023-04-15T04:08:50;0.80;;;0.80;;
11086;SDS011;5597;47.588;9.642;2023-04-15T04:11:15;1.60;;;1.03;;
11086;SDS011;5597;47.588;9.642;2023-04-15T04:13:41;1.53;;;1.00;;
11086;SDS011;5597;47.588;9.642;2023-04-15T04:16:06;1.77;;;0.90;;
11086;SDS011;5597;47.588;9.642;2023-04-15T04:18:32;1.33;;;0.90;;
11086;SDS011;5597;47.588;9.642;2023-04-15T04:20:58;2.80;;;1.20;;
11086;SDS011;5597;47.588;9.642;2023-04-15T04:23:24;1.30;;;0.90;;
11086;SDS011;5597;47.588;9.642;2023-04-15T04:25:50;2.00;;;1.00;;
11086;SDS011;5597;47.588;9.642;2023-04-15T04:28:16;3.13;;;1.20;;
11086;SDS011;5597;47.588;9.642;2023-04-15T04:30:42;1.10;;;0.87;;
11086;SDS011;5597;47.588;9.642;2023-04-15T04:33:08;1.47;;;1.00;;
11086;SDS011;5597;47.588;9.642;2023-04-15T04:35:33;1.27;;;1.10;;
11086;SDS011;5597;47.588;9.642;2023-04-15T04:38:01;1.53;;;1.10;;
11086;SDS011;5597;47.588;9.642;2023-04-15T04:40:28;1.73;;;1.10;;
11086;SDS011;5597;47.588;9.642;2023-04-15T04:42:53;3.07;;;1.20;;
11086;SDS011;5597;47.588;9.642;2023-04-15T04:45:19;1.30;;;1.00;;
11086;SDS011;5597;47.588;9.642;2023-04-15T04:47:47;1.73;;;0.87;;
11086;SDS011;5597;47.588;9.642;2023-04-15T04:50:13;0.90;;;0.77;;
11086;SDS011;5597;47.588;9.642;2023-04-15T04:52:39;1.47;;;1.00;;
11086;SDS011;5597;47.588;9.642;2023-04-15T04:55:04;0.83;;;0.80;;
11086;SDS011;5597;47.588;9.642;2023-04-15T04:57:30;1.70;;;1.00;;
11086;SDS011;5597;47.588;9.642;2023-04-15T04:59:56;1.30;;;0.93;;
11086;SDS011;5597;47.588;9.642;2023-04-15T05:02:21;1.07;;;0.97;;
11086;SDS011;5597;47.588;9.642;2023-04-15T05:04:47;1.77;;;1.10;;
11086;SDS011;5597;47.588;9.642;2023-04-15T05:07:14;0.93;;;0.80;;
11086;SDS011;5597;47.588;9.642;2023-04-15T05:09:39;1.10;;;0.90;;
11086;SDS011;5597;47.588;9.642;2023-04-15T05:12:05;1.87;;;1.20;;
11086;SDS011;5597;47.588;9.642;2023-04-15T05:14:32;1.43;;;1.00;;
11086;SDS011;5597;47.588;9.642;2023-04-15T05:16:58;2.90;;;1.30;;
11086;SDS011;5597;47.588;9.642;2023-04-15T05:19:23;2.07;;;0.90;;
11086;SDS011;5597;47.588;9.642;2023-04-15T05:21:49;1.80;;;1.10;;
11086;SDS011;5597;47.588;9.642;2023-04-15T05:24:15;2.30;;;1.20;;
11086;SDS011;5597;47.588;9.642;2023-04-15T05:26:40;1.20;;;0.90;;
11086;SDS011;5597;47.588;9.642;2023-04-15T05:29:06;1.20;;;1.00;;
11086;SDS011;5597;47.588;9.642;2023-04-15T05:31:32;2.00;;;1.00;;
11086;SDS011;5597;47.588;9.642;2023-04-15T05:33:57;3.10;;;1.30;;
11086;SDS011;5597;47.588;9.642;2023-04-15T05:36:23;1.87;;;1.20;;
11086;SDS011;5597;47.588;9.642;2023-04-15T05:38:48;1.57;;;1.17;;
11086;SDS011;5597;47.588;9.642;2023-04-15T05:41:14;1.90;;;1.10;;
11086;SDS011;5597;47.588;9.642;2023-04-15T05:43:40;1.20;;;1.00;;
11086;SDS011;5597;47.588;9.642;2023-04-15T05:46:06;1.53;;;1.20;;
11086;SDS011;5597;47.588;9.642;2023-04-15T05:48:32;1.13;;;1.00;;
11086;SDS011;5597;47.588;9.642;2023-04-15T05:50:58;2.33;;;1.30;;
11086;SDS011;5597;47.588;9.642;2023-04-15T05:53:24;2.03;;;1.00;;
11086;SDS011;5597;47.588;9.642;2023-04-15T05:55:50;2.93;;;1.00;;
11086;SDS011;5597;47.588;9.642;2023-04-15T05:58:15;2.70;;;1.10;;
11086;SDS011;5597;47.588;9.642;2023-04-15T06:00:41;1.73;;;1.10;;
11086;SDS011;5597;47.588;9.642;2023-04-15T06:03:06;2.33;;;1.00;;
11086;SDS011;5597;47.588;9.642;2023-04-15T06:05:32;2.13;;;1.00;;
11086;SDS011;5597;47.588;9.642;2023-04-15T06:07:58;1.90;;;1.00;;
11086;SDS011;5597;47.588;9.642;2023-04-15T06:10:24;1.83;;;0.87;;
11086;SDS011;5597;47.588;9.642;2023-04-15T06:12:51;1.63;;;1.20;;
11086;SDS011;5597;47.588;9.642;2023-04-15T06:15:17;2.93;;;1.30;;
11086;SDS011;5597;47.588;9.642;2023-04-15T06:17:42;1.10;;;1.00;;
11086;SDS011;5597;47.588;9.642;2023-04-15T06:20:08;2.00;;;1.30;;
11086;SDS011;5597;47.588;9.642;2023-04-15T06:22:35;1.97;;;1.00;;
11086;SDS011;5597;47.588;9.642;2023-04-15T06:25:02;2.30;;;1.10;;
11086;SDS011;5597;47.588;9.642;2023-04-15T06:27:27;3.60;;;1.20;;
11086;SDS011;5597;47.588;9.642;2023-04-15T06:29:53;1.90;;;0.90;;
11086;SDS011;5597;47.588;9.642;2023-04-15T06:32:18;2.00;;;1.07;;
11086;SDS011;5597;47.588;9.642;2023-04-15T06:34:44;1.33;;;1.13;;
11086;SDS011;5597;47.588;9.642;2023-04-15T06:37:10;1.67;;;0.90;;
11086;SDS011;5597;47.588;9.642;2023-04-15T06:39:40;1.30;;;1.00;;
11086;SDS011;5597;47.588;9.642;2023-04-15T06:42:06;1.77;;;1.03;;
11086;SDS011;5597;47.588;9.642;2023-04-15T06:44:33;1.63;;;1.00;;
11086;SDS011;5597;47.588;9.642;2023-04-15T06:46:58;1.83;;;1.30;;
11086;SDS011;5597;47.588;9.642;2023-04-15T06:49:24;1.63;;;1.10;;
11086;SDS011;5597;47.588;9.642;2023-04-15T06:51:50;1.67;;;1.10;;
11086;SDS011;5597;47.588;9.642;2023-04-15T06:54:16;1.60;;;1.17;;
11086;SDS011;5597;47.588;9.642;2023-04-15T06:56:42;1.90;;;1.10;;
11086;SDS011;5597;47.588;9.642;2023-04-15T06:59:07;2.00;;;1.10;;
11086;SDS011;5597;47.588;9.642;2023-04-15T07:01:33;2.47;;;1.20;;
11086;SDS011;5597;47.588;9.642;2023-04-15T07:03:59;1.17;;;0.80;;
11086;SDS011;5597;47.588;9.642;2023-04-15T07:06:25;1.63;;;0.90;;
11086;SDS011;5597;47.588;9.642;2023-04-15T07:08:51;0.90;;;0.77;;
11086;SDS011;5597;47.588;9.642;2023-04-15T07:11:18;1.50;;;1.10;;
11086;SDS011;5597;47.588;9.642;2023-04-15T07:13:45;2.37;;;1.20;;
11086;SDS011;5597;47.588;9.642;2023-04-15T07:16:10;2.10;;;1.10;;
11086;SDS011;5597;47.588;9.642;2023-04-15T07:18:36;1.83;;;1.10;;
11086;SDS011;5597;47.588;9.642;2023-04-15T07:21:02;1.13;;;0.90;;
11086;SDS011;5597;47.588;9.642;2023-04-15T07:23:27;1.87;;;1.10;;
11086;SDS011;5597;47.588;9.642;2023-04-15T07:25:53;1.33;;;0.90;;
11086;SDS011;5597;47.588;9.642;2023-04-15T07:28:19;1.17;;;0.90;;
11086;SDS011;5597;47.588;9.642;2023-04-15T07:30:44;2.03;;;1.30;;
11086;SDS011;5597;47.588;9.642;2023-04-15T07:33:10;2.03;;;1.13;;
11086;SDS011;5597;47.588;9.642;2023-04-15T07:35:36;1.00;;;0.90;;
11086;SDS011;5597;47.588;9.642;2023-04-15T07:38:01;1.60;;;1.20;;
11086;SDS011;5597;47.588;9.642;2023-04-15T07:40:27;3.40;;;1.23;;
11086;SDS011;5597;47.588;9.642;2023-04-15T07:42:53;1.37;;;1.00;;
11086;SDS011;5597;47.588;9.642;2023-04-15T07:45:21;1.57;;;1.10;;
11086;SDS011;5597;47.588;9.642;2023-04-15T07:47:46;3.17;;;1.23;;
11086;SDS011;5597;47.588;9.642;2023-04-15T07:50:12;1.40;;;1.00;;
11086;SDS011;5597;47.588;9.642;2023-04-15T07:52:38;1.97;;;1.20;;
11086;SDS011;5597;47.588;9.642;2023-04-15T07:55:05;1.20;;;1.10;;
11086;SDS011;5597;47.588;9.642;2023-04-15T07:57:33;1.83;;;1.10;;
11086;SDS011;5597;47.588;9.642;2023-04-15T07:59:59;1.50;;;1.23;;
11086;SDS011;5597;47.588;9.642;2023-04-15T08:02:25;1.90;;;1.10;;
11086;SDS011;5597;47.588;9.642;2023-04-15T08:04:50;1.63;;;1.10;;
11086;SDS011;5597;47.588;9.642;2023-04-15T08:07:17;1.50;;;1.20;;
11086;SDS011;5597;47.588;9.642;2023-04-15T08:09:42;1.47;;;1.20;;
11086;SDS011;5597;47.588;9.642;2023-04-15T08:12:08;4.33;;;1.37;;
11086;SDS011;5597;47.588;9.642;2023-04-15T08:14:37;1.90;;;1.20;;
11086;SDS011;5597;47.588;9.642;2023-04-15T08:17:03;1.67;;;1.30;;
11086;SDS011;5597;47.588;9.642;2023-04-15T08:19:29;1.60;;;1.40;;
11086;SDS011;5597;47.588;9.642;2023-04-15T08:21:55;1.87;;;1.20;;
11086;SDS011;5597;47.588;9.642;2023-04-15T08:24:21;1.57;;;1.10;;
11086;SDS011;5597;47.588;9.642;2023-04-15T08:26:46;1.70;;;1.20;;
11086;SDS011;5597;47.588;9.642;2023-04-15T08:29:12;2.30;;;1.13;;
11086;SDS011;5597;47.588;9.642;2023-04-15T08:31:38;2.07;;;1.30;;
11086;SDS011;5597;47.588;9.642;2023-04-15T08:34:03;1.97;;;1.00;;
11086;SDS011;5597;47.588;9.642;2023-04-15T08:36:29;1.77;;;1.13;;
11086;SDS011;5597;47.588;9.642;2023-04-15T08:38:56;2.20;;;1.30;;
11086;SDS011;5597;47.588;9.642;2023-04-15T08:41:22;2.87;;;1.30;;
11086;SDS011;5597;47.588;9.642;2023-04-15T08:43:55;2.17;;;1.10;;
11086;SDS011;5597;47.588;9.642;2023-04-15T08:46:22;2.37;;;1.00;;
11086;SDS011;5597;47.588;9.642;2023-04-15T08:48:48;1.63;;;1.07;;
11086;SDS011;5597;47.588;9.642;2023-04-15T08:51:15;1.77;;;1.20;;
11086;SDS011;5597;47.588;9.642;2023-04-15T08:53:42;2.10;;;1.10;;
11086;SDS011;5597;47.588;9.642;2023-04-15T08:56:10;1.87;;;1.10;;
11086;SDS011;5597;47.588;9.642;2023-04-15T08:58:38;1.67;;;1.00;;
11086;SDS011;5597;47.588;9.642;2023-04-15T09:01:03;2.00;;;1.00;;
11086;SDS011;5597;47.588;9.642;2023-04-15T09:03:29;2.00;;;1.07;;
11086;SDS011;5597;47.588;9.642;2023-04-15T09:05:56;1.60;;;1.13;;
11086;SDS011;5597;47.588;9.642;2023-04-15T09:08:22;1.47;;;1.10;;
11086;SDS011;5597;47.588;9.642;2023-04-15T09:10:47;1.00;;;0.90;;
11086;SDS011;5597;47.588;9.642;2023-04-15T09:13:13;2.13;;;1.00;;
11086;SDS011;5597;47.588;9.642;2023-04-15T09:15:39;1.60;;;1.00;;
11086;SDS011;5597;47.588;9.642;2023-04-15T09:18:05;1.20;;;1.00;;
11086;SDS011;5597;47.588;9.642;2023-04-15T09:20:38;1.77;;;1.23;;
11086;SDS011;5597;47.588;9.642;2023-04-15T09:23:11;2.47;;;1.10;;
11086;SDS011;5597;47.588;9.642;2023-04-15T09:25:38;1.47;;;1.07;;
11086;SDS011;5597;47.588;9.642;2023-04-15T09:28:06;1.80;;;1.10;;
11086;SDS011;5597;47.588;9.642;2023-04-15T09:30:32;0.80;;;0.80;;
11086;SDS011;5597;47.588;9.642;2023-04-15T09:32:59;1.93;;;0.97;;
11086;SDS011;5597;47.588;9.642;2023-04-15T09:35:32;1.63;;;1.00;;
11086;SDS011;5597;47.588;9.642;2023-04-15T09:38:06;2.20;;;1.30;;
11086;SDS011;5597;47.588;9.642;2023-04-15T09:40:37;1.60;;;1.00;;
11086;SDS011;5597;47.588;9.642;2023-04-15T09:43:05;1.20;;;1.03;;
11086;SDS011;5597;47.588;9.642;2023-04-15T09:45:32;1.87;;;0.90;;
11086;SDS011;5597;47.588;9.642;2023-04-15T09:48:00;1.60;;;1.17;;
11086;SDS011;5597;47.588;9.642;2023-04-15T09:50:51;2.57;;;0.97;;
11086;SDS011;5597;47.588;9.642;2023-04-15T09:53:21;1.73;;;1.27;;
11086;SDS011;5597;47.588;9.642;2023-04-15T09:55:55;1.53;;;1.10;;
11086;SDS011;5597;47.588;9.642;2023-04-15T10:00:55;1.47;;;1.10;;
11086;SDS011;5597;47.588;9.642;2023-04-15T10:03:25;1.33;;;0.93;;
11086;SDS011;5597;47.588;9.642;2023-04-15T10:05:56;1.77;;;1.30;;
11086;SDS011;5597;47.588;9.642;2023-04-15T10:08:24;1.20;;;1.07;;
11086;SDS011;5597;47.588;9.642;2023-04-15T10:10:52;2.03;;;1.13;;
11086;SDS011;5597;47.588;9.642;2023-04-15T10:13:19;2.23;;;1.30;;
11086;SDS011;5597;47.588;9.642;2023-04-15T10:15:57;2.60;;;1.20;;
11086;SDS011;5597;47.588;9.642;2023-04-15T10:18:27;1.30;;;1.10;;
11086;SDS011;5597;47.588;9.642;2023-04-15T10:20:53;1.57;;;1.17;;
11086;SDS011;5597;47.588;9.642;2023-04-15T10:23:19;1.60;;;1.00;;
11086;SDS011;5597;47.588;9.642;2023-04-15T10:25:46;2.23;;;1.60;;
11086;SDS011;5597;47.588;9.642;2023-04-15T10:28:16;3.60;;;2.30;;
11086;SDS011;5597;47.588;9.642;2023-04-15T10:30:42;1.77;;;1.43;;
11086;SDS011;5597;47.588;9.642;2023-04-15T10:33:08;1.70;;;1.30;;
11086;SDS011;5597;47.588;9.642;2023-04-15T10:35:35;2.70;;;1.20;;
11086;SDS011;5597;47.588;9.642;2023-04-15T10:38:01;2.00;;;1.37;;
11086;SDS011;5597;47.588;9.642;2023-04-15T10:42:57;1.63;;;1.20;;
11086;SDS011;5597;47.588;9.642;2023-04-15T10:45:24;2.17;;;1.20;;
11086;SDS011;5597;47.588;9.642;2023-04-15T10:48:02;2.53;;;1.30;;
11086;SDS011;5597;47.588;9.642;2023-04-15T10:50:31;1.90;;;1.20;;
11086;SDS011;5597;47.588;9.642;2023-04-15T10:52:56;2.53;;;1.63;;
11086;SDS011;5597;47.588;9.642;2023-04-15T10:55:23;3.93;;;2.00;;
11086;SDS011;5597;47.588;9.642;2023-04-15T10:57:55;2.57;;;1.57;;
11086;SDS011;5597;47.588;9.642;2023-04-15T11:00:25;2.87;;;1.57;;
11086;SDS011;5597;47.588;9.642;2023-04-15T11:02:56;2.83;;;1.50;;
11086;SDS011;5597;47.588;9.642;2023-04-15T11:08:03;1.97;;;1.30;;
11086;SDS011;5597;47.588;9.642;2023-04-15T11:12:59;1.93;;;1.53;;
11086;SDS011;5597;47.588;9.642;2023-04-15T11:15:39;4.37;;;1.67;;
11086;SDS011;5597;47.588;9.642;2023-04-15T11:18:09;3.40;;;1.30;;
11086;SDS011;5597;47.588;9.642;2023-04-15T11:21:02;3.17;;;1.33;;
11086;SDS011;5597;47.588;9.642;2023-04-15T11:23:31;2.50;;;1.40;;
11086;SDS011;5597;47.588;9.642;2023-04-15T11:26:00;3.40;;;1.60;;
11086;SDS011;5597;47.588;9.642;2023-04-15T11:28:29;3.30;;;1.47;;
11086;SDS011;5597;47.588;9.642;2023-04-15T11:30:56;4.40;;;1.70;;
11086;SDS011;5597;47.588;9.642;2023-04-15T11:33:22;2.63;;;1.60;;
11086;SDS011;5597;47.588;9.642;2023-04-15T11:35:48;2.33;;;1.60;;
11086;SDS011;5597;47.588;9.642;2023-04-15T11:38:16;2.80;;;1.77;;
11086;SDS011;5597;47.588;9.642;2023-04-15T11:40:42;2.40;;;1.70;;
11086;SDS011;5597;47.588;9.642;2023-04-15T11:43:15;2.93;;;1.60;;
11086;SDS011;5597;47.588;9.642;2023-04-15T11:45:49;3.00;;;1.57;;
11086;SDS011;5597;47.588;9.642;2023-04-15T11:48:20;2.07;;;1.50;;
11086;SDS011;5597;47.588;9.642;2023-04-15T11:50:54;2.87;;;1.90;;
11086;SDS011;5597;47.588;9.642;2023-04-15T11:53:22;2.90;;;1.63;;
11086;SDS011;5597;47.588;9.642;2023-04-15T11:55:49;2.60;;;1.90;;
11086;SDS011;5597;47.588;9.642;2023-04-15T11:58:20;4.23;;;2.20;;
11086;SDS011;5597;47.588;9.642;2023-04-15T12:00:54;2.63;;;1.70;;
11086;SDS011;5597;47.588;9.642;2023-04-15T12:11:37;3.07;;;1.60;;
11086;SDS011;5597;47.588;9.642;2023-04-15T12:14:20;3.27;;;2.10;;
11086;SDS011;5597;47.588;9.642;2023-04-15T12:16:50;3.70;;;1.87;;
11086;SDS011;5597;47.588;9.642;2023-04-15T12:19:24;3.20;;;1.80;;
11086;SDS011;5597;47.588;9.642;2023-04-15T12:22:00;2.80;;;1.80;;
11086;SDS011;5597;47.588;9.642;2023-04-15T12:24:27;2.43;;;1.90;;
11086;SDS011;5597;47.588;9.642;2023-04-15T12:26:55;2.27;;;1.63;;
11086;SDS011;5597;47.588;9.642;2023-04-15T12:29:28;4.23;;;1.60;;
11086;SDS011;5597;47.588;9.642;2023-04-15T12:31:57;4.50;;;2.17;;
11086;SDS011;5597;47.588;9.642;2023-04-15T12:37:15;3.33;;;2.10;;
11086;SDS011;5597;47.588;9.642;2023-04-15T12:39:41;1.63;;;1.53;;
11086;SDS011;5597;47.588;9.642;2023-04-15T12:42:08;3.03;;;1.97;;
11086;SDS011;5597;47.588;9.642;2023-04-15T12:44:35;4.10;;;2.73;;
11086;SDS011;5597;47.588;9.642;2023-04-15T12:47:01;2.93;;;2.00;;
11086;SDS011;5597;47.588;9.642;2023-04-15T12:49:27;4.27;;;2.30;;
11086;SDS011;5597;47.588;9.642;2023-04-15T12:51:54;3.97;;;2.20;;
11086;SDS011;5597;47.588;9.642;2023-04-15T12:54:21;4.27;;;2.07;;
11086;SDS011;5597;47.588;9.642;2023-04-15T12:56:47;2.70;;;1.97;;
11086;SDS011;5597;47.588;9.642;2023-04-15T12:59:14;2.23;;;1.90;;
11086;SDS011;5597;47.588;9.642;2023-04-15T13:01:42;4.20;;;2.17;;
11086;SDS011;5597;47.588;9.642;2023-04-15T13:04:08;2.53;;;2.00;;
11086;SDS011;5597;47.588;9.642;2023-04-15T13:06:34;3.00;;;2.37;;
11086;SDS011;5597;47.588;9.642;2023-04-15T13:09:01;3.10;;;2.40;;
11086;SDS011;5597;47.588;9.642;2023-04-15T13:11:27;3.30;;;2.33;;
11086;SDS011;5597;47.588;9.642;2023-04-15T13:13:58;3.30;;;2.23;;
11086;SDS011;5597;47.588;9.642;2023-04-15T13:16:27;2.47;;;1.90;;
11086;SDS011;5597;47.588;9.642;2023-04-15T13:18:53;2.43;;;2.10;;
11086;SDS011;5597;47.588;9.642;2023-04-15T13:21:19;4.07;;;2.40;;
11086;SDS011;5597;47.588;9.642;2023-04-15T13:23:45;2.70;;;1.90;;
11086;SDS011;5597;47.588;9.642;2023-04-15T13:26:11;3.27;;;2.40;;
11086;SDS011;5597;47.588;9.642;2023-04-15T13:28:37;2.20;;;2.00;;
11086;SDS011;5597;47.588;9.642;2023-04-15T13:31:04;2.73;;;2.00;;
11086;SDS011;5597;47.588;9.642;2023-04-15T13:33:30;2.47;;;2.10;;
11086;SDS011;5597;47.588;9.642;2023-04-15T13:35:55;2.70;;;1.70;;
11086;SDS011;5597;47.588;9.642;2023-04-15T13:38:22;1.77;;;1.40;;
11086;SDS011;5597;47.588;9.642;2023-04-15T13:40:49;2.90;;;1.40;;
11086;SDS011;5597;47.588;9.642;2023-04-15T13:43:16;2.30;;;1.60;;
11086;SDS011;5597;47.588;9.642;2023-04-15T13:45:42;2.73;;;1.50;;
11086;SDS011;5597;47.588;9.642;2023-04-15T13:48:08;3.63;;;2.00;;
11086;SDS011;5597;47.588;9.642;2023-04-15T13:50:33;3.27;;;1.50;;
11086;SDS011;5597;47.588;9.642;2023-04-15T13:52:59;1.50;;;1.30;;
11086;SDS011;5597;47.588;9.642;2023-04-15T13:55:25;2.20;;;1.37;;
11086;SDS011;5597;47.588;9.642;2023-04-15T13:57:50;6.20;;;2.23;;
11086;SDS011;5597;47.588;9.642;2023-04-15T14:00:16;4.03;;;2.80;;
11086;SDS011;5597;47.588;9.642;2023-04-15T14:02:42;6.53;;;4.43;;
11086;SDS011;5597;47.588;9.642;2023-04-15T14:05:08;4.90;;;3.23;;
11086;SDS011;5597;47.588;9.642;2023-04-15T14:07:34;3.30;;;2.30;;
11086;SDS011;5597;47.588;9.642;2023-04-15T14:10:00;3.13;;;2.20;;
11086;SDS011;5597;47.588;9.642;2023-04-15T14:12:26;3.43;;;2.40;;
11086;SDS011;5597;47.588;9.642;2023-04-15T14:14:51;3.70;;;3.00;;
11086;SDS011;5597;47.588;9.642;2023-04-15T14:17:17;4.93;;;3.30;;
11086;SDS011;5597;47.588;9.642;2023-04-15T14:19:43;4.53;;;3.60;;
11086;SDS011;5597;47.588;9.642;2023-04-15T14:22:08;4.10;;;2.67;;
11086;SDS011;5597;47.588;9.642;2023-04-15T14:24:34;2.67;;;2.10;;
11086;SDS011;5597;47.588;9.642;2023-04-15T14:27:00;3.70;;;2.07;;
11086;SDS011;5597;47.588;9.642;2023-04-15T14:29:26;2.07;;;1.50;;
11086;SDS011;5597;47.588;9.642;2023-04-15T14:31:52;2.87;;;1.60;;
11086;SDS011;5597;47.588;9.642;2023-04-15T14:34:17;1.93;;;1.40;;
11086;SDS011;5597;47.588;9.642;2023-04-15T14:36:43;2.27;;;1.20;;
11086;SDS011;5597;47.588;9.642;2023-04-15T14:39:09;2.33;;;1.30;;
11086;SDS011;5597;47.588;9.642;2023-04-15T14:41:35;2.17;;;1.40;;
11086;SDS011;5597;47.588;9.642;2023-04-15T14:44:01;2.00;;;1.33;;
11086;SDS011;5597;47.588;9.642;2023-04-15T14:46:27;1.97;;;1.17;;
11086;SDS011;5597;47.588;9.642;2023-04-15T14:48:52;2.17;;;1.27;;
11086;SDS011;5597;47.588;9.642;2023-04-15T14:51:18;1.57;;;1.00;;
11086;SDS011;5597;47.588;9.642;2023-04-15T14:53:44;1.60;;;1.10;;
11086;SDS011;5597;47.588;9.642;2023-04-15T14:56:10;1.97;;;1.40;;
11086;SDS011;5597;47.588;9.642;2023-04-15T14:58:36;2.43;;;1.70;;
11086;SDS011;5597;47.588;9.642;2023-04-15T15:01:02;2.30;;;1.50;;
11086;SDS011;5597;47.588;9.642;2023-04-15T15:03:28;1.50;;;1.27;;
11086;SDS011;5597;47.588;9.642;2023-04-15T15:05:54;1.37;;;1.20;;
11086;SDS011;5597;47.588;9.642;2023-04-15T15:08:21;2.50;;;1.10;;
11086;SDS011;5597;47.588;9.642;2023-04-15T15:10:48;1.57;;;1.10;;
11086;SDS011;5597;47.588;9.642;2023-04-15T15:13:13;1.73;;;1.00;;
11086;SDS011;5597;47.588;9.642;2023-04-15T15:15:39;2.60;;;1.10;;
11086;SDS011;5597;47.588;9.642;2023-04-15T15:18:05;1.70;;;1.00;;